sensor_id;sensor_type;location;lat;lon;timestamp;P1;durP1;ratioP1;P2;durP2;ratioP2
72408;SDS011;60402;48.082;11.628;2023-04-16T00:01:00;3.83;;;1.63;;
72408;SDS011;60402;48.082;11.628;2023-04-16T00:03:46;4.75;;;1.80;;
72408;SDS011;60402;48.082;11.628;2023-04-16T00:06:31;3.85;;;1.48;;
72408;SDS011;60402;48.082;11.628;2023-04-16T00:09:17;4.43;;;1.95;;
72408;SDS011;60402;48.082;11.628;2023-04-16T00:12:03;4.68;;;1.80;;
72408;SDS011;60402;48.082;11.628;2023-04-16T00:14:48;4.50;;;1.95;;
72408;SDS011;60402;48.082;11.628;2023-04-16T00:17:34;6.07;;;1.95;;
72408;SDS011;60402;48.082;11.628;2023-04-16T00:20:20;4.93;;;2.13;;
72408;SDS011;60402;48.082;11.628;2023-04-16T00:23:06;5.63;;;2.38;;
72408;SDS011;60402;48.082;11.628;2023-04-16T00:25:51;5.05;;;2.25;;
72408;SDS011;60402;48.082;11.628;2023-04-16T00:28:38;3.90;;;1.80;;
72408;SDS011;60402;48.082;11.628;2023-04-16T00:31:30;4.22;;;1.80;;
72408;SDS011;60402;48.082;11.628;2023-04-16T00:34:16;5.28;;;1.75;;
72408;SDS011;60402;48.082;11.628;2023-04-16T00:37:02;5.50;;;2.20;;
72408;SDS011;60402;48.082;11.628;2023-04-16T00:39:47;4.85;;;2.08;;
72408;SDS011;60402;48.082;11.628;2023-04-16T00:42:34;7.47;;;2.38;;
72408;SDS011;60402;48.082;11.628;2023-04-16T00:45:21;5.38;;;2.20;;
72408;SDS011;60402;48.082;11.628;2023-04-16T00:48:06;4.57;;;1.98;;
72408;SDS011;60402;48.082;11.628;2023-04-16T00:50:52;4.75;;;2.25;;
72408;SDS011;60402;48.082;11.628;2023-04-16T00:53:39;5.35;;;2.20;;
72408;SDS011;60402;48.082;11.628;2023-04-16T00:56:26;5.47;;;2.42;;
72408;SDS011;60402;48.082;11.628;2023-04-16T00:59:13;5.70;;;2.22;;
72408;SDS011;60402;48.082;11.628;2023-04-16T01:01:58;5.63;;;2.72;;
72408;SDS011;60402;48.082;11.628;2023-04-16T01:04:44;6.30;;;2.55;;
72408;SDS011;60402;48.082;11.628;2023-04-16T01:07:30;5.43;;;2.40;;
72408;SDS011;60402;48.082;11.628;2023-04-16T01:10:16;5.25;;;2.22;;
72408;SDS011;60402;48.082;11.628;2023-04-16T01:13:01;5.68;;;2.40;;
72408;SDS011;60402;48.082;11.628;2023-04-16T01:15:47;5.95;;;2.38;;
72408;SDS011;60402;48.082;11.628;2023-04-16T01:18:33;6.38;;;2.33;;
72408;SDS011;60402;48.082;11.628;2023-04-16T01:21:19;6.13;;;2.72;;
72408;SDS011;60402;48.082;11.628;2023-04-16T01:24:05;5.80;;;2.47;;
72408;SDS011;60402;48.082;11.628;2023-04-16T01:26:51;6.47;;;3.13;;
72408;SDS011;60402;48.082;11.628;2023-04-16T01:29:37;6.35;;;3.03;;
72408;SDS011;60402;48.082;11.628;2023-04-16T01:32:22;6.43;;;2.72;;
72408;SDS011;60402;48.082;11.628;2023-04-16T01:35:08;5.93;;;2.40;;
72408;SDS011;60402;48.082;11.628;2023-04-16T01:37:54;6.65;;;2.58;;
72408;SDS011;60402;48.082;11.628;2023-04-16T01:40:39;6.22;;;2.30;;
72408;SDS011;60402;48.082;11.628;2023-04-16T01:43:25;5.97;;;2.55;;
72408;SDS011;60402;48.082;11.628;2023-04-16T01:46:12;7.20;;;2.97;;
72408;SDS011;60402;48.082;11.628;2023-04-16T01:49:00;6.03;;;2.42;;
72408;SDS011;60402;48.082;11.628;2023-04-16T01:51:47;5.50;;;2.40;;
72408;SDS011;60402;48.082;11.628;2023-04-16T01:54:32;7.22;;;2.30;;
72408;SDS011;60402;48.082;11.628;2023-04-16T01:57:18;5.72;;;2.90;;
72408;SDS011;60402;48.082;11.628;2023-04-16T02:00:04;5.07;;;2.15;;
72408;SDS011;60402;48.082;11.628;2023-04-16T02:02:50;6.55;;;2.63;;
72408;SDS011;60402;48.082;11.628;2023-04-16T02:05:35;6.72;;;2.65;;
72408;SDS011;60402;48.082;11.628;2023-04-16T02:08:21;6.20;;;2.88;;
72408;SDS011;60402;48.082;11.628;2023-04-16T02:11:07;6.85;;;2.75;;
72408;SDS011;60402;48.082;11.628;2023-04-16T02:13:53;5.50;;;2.50;;
72408;SDS011;60402;48.082;11.628;2023-04-16T02:16:39;6.13;;;2.67;;
72408;SDS011;60402;48.082;11.628;2023-04-16T02:19:25;5.82;;;2.47;;
72408;SDS011;60402;48.082;11.628;2023-04-16T02:22:10;5.53;;;2.47;;
72408;SDS011;60402;48.082;11.628;2023-04-16T02:24:56;6.95;;;2.83;;
72408;SDS011;60402;48.082;11.628;2023-04-16T02:27:42;7.80;;;3.05;;
72408;SDS011;60402;48.082;11.628;2023-04-16T02:30:27;6.43;;;2.42;;
72408;SDS011;60402;48.082;11.628;2023-04-16T02:33:13;5.70;;;2.33;;
72408;SDS011;60402;48.082;11.628;2023-04-16T02:35:58;5.50;;;2.47;;
72408;SDS011;60402;48.082;11.628;2023-04-16T02:38:44;6.50;;;2.65;;
72408;SDS011;60402;48.082;11.628;2023-04-16T02:41:30;6.35;;;2.80;;
72408;SDS011;60402;48.082;11.628;2023-04-16T02:44:16;6.25;;;2.58;;
72408;SDS011;60402;48.082;11.628;2023-04-16T02:47:01;7.70;;;3.10;;
72408;SDS011;60402;48.082;11.628;2023-04-16T02:49:47;7.35;;;2.70;;
72408;SDS011;60402;48.082;11.628;2023-04-16T02:52:33;5.20;;;2.60;;
72408;SDS011;60402;48.082;11.628;2023-04-16T02:55:18;6.05;;;2.42;;
72408;SDS011;60402;48.082;11.628;2023-04-16T02:58:04;7.07;;;3.10;;
72408;SDS011;60402;48.082;11.628;2023-04-16T03:00:50;7.35;;;2.78;;
72408;SDS011;60402;48.082;11.628;2023-04-16T03:03:36;7.10;;;2.58;;
72408;SDS011;60402;48.082;11.628;2023-04-16T03:06:22;5.75;;;2.75;;
72408;SDS011;60402;48.082;11.628;2023-04-16T03:09:08;5.60;;;2.45;;
72408;SDS011;60402;48.082;11.628;2023-04-16T03:11:53;7.22;;;2.60;;
72408;SDS011;60402;48.082;11.628;2023-04-16T03:14:39;5.57;;;2.30;;
72408;SDS011;60402;48.082;11.628;2023-04-16T03:17:24;5.88;;;2.75;;
72408;SDS011;60402;48.082;11.628;2023-04-16T03:20:10;5.28;;;2.38;;
72408;SDS011;60402;48.082;11.628;2023-04-16T03:22:56;5.95;;;2.33;;
72408;SDS011;60402;48.082;11.628;2023-04-16T03:25:42;6.28;;;2.60;;
72408;SDS011;60402;48.082;11.628;2023-04-16T03:31:16;6.25;;;2.40;;
72408;SDS011;60402;48.082;11.628;2023-04-16T03:34:02;6.00;;;2.80;;
72408;SDS011;60402;48.082;11.628;2023-04-16T03:36:47;5.05;;;2.40;;
72408;SDS011;60402;48.082;11.628;2023-04-16T03:39:33;4.80;;;1.98;;
72408;SDS011;60402;48.082;11.628;2023-04-16T03:42:18;5.28;;;2.53;;
72408;SDS011;60402;48.082;11.628;2023-04-16T03:45:04;5.35;;;2.20;;
72408;SDS011;60402;48.082;11.628;2023-04-16T03:47:50;4.97;;;2.15;;
72408;SDS011;60402;48.082;11.628;2023-04-16T03:50:36;5.07;;;2.38;;
72408;SDS011;60402;48.082;11.628;2023-04-16T03:53:22;5.05;;;2.28;;
72408;SDS011;60402;48.082;11.628;2023-04-16T03:56:08;5.43;;;2.40;;
72408;SDS011;60402;48.082;11.628;2023-04-16T03:58:53;6.05;;;2.50;;
72408;SDS011;60402;48.082;11.628;2023-04-16T04:01:39;5.45;;;2.65;;
72408;SDS011;60402;48.082;11.628;2023-04-16T04:04:24;4.78;;;2.42;;
72408;SDS011;60402;48.082;11.628;2023-04-16T04:07:10;5.07;;;2.17;;
72408;SDS011;60402;48.082;11.628;2023-04-16T04:09:56;5.15;;;2.42;;
72408;SDS011;60402;48.082;11.628;2023-04-16T04:12:42;5.45;;;2.33;;
72408;SDS011;60402;48.082;11.628;2023-04-16T04:15:27;5.90;;;2.22;;
72408;SDS011;60402;48.082;11.628;2023-04-16T04:18:13;5.35;;;2.30;;
72408;SDS011;60402;48.082;11.628;2023-04-16T04:20:59;6.28;;;2.47;;
72408;SDS011;60402;48.082;11.628;2023-04-16T04:23:49;6.32;;;2.35;;
72408;SDS011;60402;48.082;11.628;2023-04-16T04:26:35;5.13;;;2.25;;
72408;SDS011;60402;48.082;11.628;2023-04-16T04:29:20;6.20;;;2.42;;
72408;SDS011;60402;48.082;11.628;2023-04-16T04:32:06;5.82;;;2.40;;
72408;SDS011;60402;48.082;11.628;2023-04-16T04:34:52;5.00;;;2.20;;
72408;SDS011;60402;48.082;11.628;2023-04-16T04:37:37;4.80;;;2.15;;
72408;SDS011;60402;48.082;11.628;2023-04-16T04:40:23;5.75;;;2.47;;
72408;SDS011;60402;48.082;11.628;2023-04-16T04:43:09;5.03;;;2.20;;
72408;SDS011;60402;48.082;11.628;2023-04-16T04:45:54;5.88;;;2.30;;
72408;SDS011;60402;48.082;11.628;2023-04-16T04:48:40;6.30;;;2.38;;
72408;SDS011;60402;48.082;11.628;2023-04-16T04:51:26;4.00;;;2.00;;
72408;SDS011;60402;48.082;11.628;2023-04-16T04:54:12;5.32;;;2.03;;
72408;SDS011;60402;48.082;11.628;2023-04-16T04:56:57;5.28;;;2.35;;
72408;SDS011;60402;48.082;11.628;2023-04-16T04:59:43;5.03;;;2.20;;
72408;SDS011;60402;48.082;11.628;2023-04-16T05:02:29;4.47;;;1.90;;
72408;SDS011;60402;48.082;11.628;2023-04-16T05:05:15;5.25;;;2.13;;
72408;SDS011;60402;48.082;11.628;2023-04-16T05:08:00;4.20;;;1.80;;
72408;SDS011;60402;48.082;11.628;2023-04-16T05:10:46;5.00;;;1.80;;
72408;SDS011;60402;48.082;11.628;2023-04-16T05:13:31;4.25;;;1.80;;
72408;SDS011;60402;48.082;11.628;2023-04-16T05:16:17;5.07;;;2.17;;
72408;SDS011;60402;48.082;11.628;2023-04-16T05:19:03;4.68;;;2.10;;
72408;SDS011;60402;48.082;11.628;2023-04-16T05:21:49;3.90;;;1.80;;
72408;SDS011;60402;48.082;11.628;2023-04-16T05:24:35;4.25;;;1.85;;
72408;SDS011;60402;48.082;11.628;2023-04-16T05:27:20;4.28;;;1.60;;
72408;SDS011;60402;48.082;11.628;2023-04-16T05:30:06;5.43;;;1.90;;
72408;SDS011;60402;48.082;11.628;2023-04-16T05:32:52;3.88;;;1.67;;
72408;SDS011;60402;48.082;11.628;2023-04-16T05:35:38;3.05;;;1.33;;
72408;SDS011;60402;48.082;11.628;2023-04-16T05:38:23;4.70;;;1.50;;
72408;SDS011;60402;48.082;11.628;2023-04-16T05:41:09;2.67;;;1.15;;
72408;SDS011;60402;48.082;11.628;2023-04-16T05:43:55;2.78;;;1.38;;
72408;SDS011;60402;48.082;11.628;2023-04-16T05:46:40;3.45;;;1.17;;
72408;SDS011;60402;48.082;11.628;2023-04-16T05:49:26;4.32;;;1.55;;
72408;SDS011;60402;48.082;11.628;2023-04-16T05:52:12;2.60;;;1.30;;
72408;SDS011;60402;48.082;11.628;2023-04-16T05:54:57;3.08;;;1.30;;
72408;SDS011;60402;48.082;11.628;2023-04-16T05:57:45;3.50;;;1.00;;
72408;SDS011;60402;48.082;11.628;2023-04-16T06:00:31;3.65;;;1.40;;
72408;SDS011;60402;48.082;11.628;2023-04-16T06:03:17;4.70;;;1.95;;
72408;SDS011;60402;48.082;11.628;2023-04-16T06:06:03;4.47;;;1.75;;
72408;SDS011;60402;48.082;11.628;2023-04-16T06:08:48;4.63;;;1.67;;
72408;SDS011;60402;48.082;11.628;2023-04-16T06:11:34;4.47;;;1.60;;
72408;SDS011;60402;48.082;11.628;2023-04-16T06:14:20;2.63;;;1.20;;
72408;SDS011;60402;48.082;11.628;2023-04-16T06:17:05;1.63;;;0.77;;
72408;SDS011;60402;48.082;11.628;2023-04-16T06:19:51;2.35;;;0.90;;
72408;SDS011;60402;48.082;11.628;2023-04-16T06:22:37;1.38;;;0.65;;
72408;SDS011;60402;48.082;11.628;2023-04-16T06:25:22;1.33;;;0.70;;
72408;SDS011;60402;48.082;11.628;2023-04-16T06:28:08;2.00;;;0.60;;
72408;SDS011;60402;48.082;11.628;2023-04-16T06:30:54;1.35;;;0.70;;
72408;SDS011;60402;48.082;11.628;2023-04-16T06:33:39;1.60;;;0.60;;
72408;SDS011;60402;48.082;11.628;2023-04-16T06:36:25;0.95;;;0.60;;
72408;SDS011;60402;48.082;11.628;2023-04-16T06:39:12;1.00;;;0.50;;
72408;SDS011;60402;48.082;11.628;2023-04-16T06:41:57;0.50;;;0.30;;
72408;SDS011;60402;48.082;11.628;2023-04-16T06:44:43;1.55;;;0.40;;
72408;SDS011;60402;48.082;11.628;2023-04-16T06:47:29;0.80;;;0.47;;
72408;SDS011;60402;48.082;11.628;2023-04-16T06:50:15;0.93;;;0.47;;
72408;SDS011;60402;48.082;11.628;2023-04-16T06:53:00;0.47;;;0.30;;
72408;SDS011;60402;48.082;11.628;2023-04-16T06:55:46;0.43;;;0.20;;
72408;SDS011;60402;48.082;11.628;2023-04-16T06:58:32;1.35;;;0.50;;
72408;SDS011;60402;48.082;11.628;2023-04-16T07:01:18;1.33;;;0.40;;
72408;SDS011;60402;48.082;11.628;2023-04-16T07:04:03;1.00;;;0.40;;
72408;SDS011;60402;48.082;11.628;2023-04-16T07:06:49;0.63;;;0.32;;
72408;SDS011;60402;48.082;11.628;2023-04-16T07:09:35;0.17;;;0.10;;
72408;SDS011;60402;48.082;11.628;2023-04-16T07:12:20;0.88;;;0.28;;
72408;SDS011;60402;48.082;11.628;2023-04-16T07:15:06;0.40;;;0.30;;
72408;SDS011;60402;48.082;11.628;2023-04-16T07:17:53;0.17;;;0.13;;
72408;SDS011;60402;48.082;11.628;2023-04-16T07:20:38;1.27;;;0.30;;
72408;SDS011;60402;48.082;11.628;2023-04-16T07:23:24;1.48;;;0.30;;
72408;SDS011;60402;48.082;11.628;2023-04-16T07:26:10;0.20;;;0.20;;
72408;SDS011;60402;48.082;11.628;2023-04-16T07:28:56;0.70;;;0.30;;
72408;SDS011;60402;48.082;11.628;2023-04-16T07:31:41;0.43;;;0.10;;
72408;SDS011;60402;48.082;11.628;2023-04-16T07:34:27;0.20;;;0.10;;
72408;SDS011;60402;48.082;11.628;2023-04-16T07:37:13;0.10;;;0.10;;
72408;SDS011;60402;48.082;11.628;2023-04-16T07:39:58;0.30;;;0.10;;
72408;SDS011;60402;48.082;11.628;2023-04-16T07:42:45;0.40;;;0.20;;
72408;SDS011;60402;48.082;11.628;2023-04-16T07:45:30;0.35;;;0.15;;
72408;SDS011;60402;48.082;11.628;2023-04-16T07:48:16;1.33;;;0.20;;
72408;SDS011;60402;48.082;11.628;2023-04-16T07:51:02;0.30;;;0.20;;
72408;SDS011;60402;48.082;11.628;2023-04-16T07:53:47;0.10;;;0.10;;
72408;SDS011;60402;48.082;11.628;2023-04-16T07:56:33;0.57;;;0.10;;
72408;SDS011;60402;48.082;11.628;2023-04-16T07:59:19;0.08;;;0.05;;
72408;SDS011;60402;48.082;11.628;2023-04-16T08:02:04;0.22;;;0.20;;
72408;SDS011;60402;48.082;11.628;2023-04-16T08:04:50;0.20;;;0.10;;
72408;SDS011;60402;48.082;11.628;2023-04-16T08:07:36;0.68;;;0.20;;
72408;SDS011;60402;48.082;11.628;2023-04-16T08:10:21;0.10;;;0.10;;
72408;SDS011;60402;48.082;11.628;2023-04-16T08:13:07;0.90;;;0.20;;
72408;SDS011;60402;48.082;11.628;2023-04-16T08:15:53;0.10;;;0.10;;
72408;SDS011;60402;48.082;11.628;2023-04-16T08:18:38;0.30;;;0.20;;
72408;SDS011;60402;48.082;11.628;2023-04-16T08:21:24;0.15;;;0.10;;
72408;SDS011;60402;48.082;11.628;2023-04-16T08:24:10;0.30;;;0.20;;
72408;SDS011;60402;48.082;11.628;2023-04-16T08:26:56;0.22;;;0.15;;
72408;SDS011;60402;48.082;11.628;2023-04-16T08:29:41;0.20;;;0.20;;
72408;SDS011;60402;48.082;11.628;2023-04-16T08:32:27;0.43;;;0.10;;
72408;SDS011;60402;48.082;11.628;2023-04-16T08:35:13;0.10;;;0.10;;
72408;SDS011;60402;48.082;11.628;2023-04-16T08:37:58;0.60;;;0.30;;
72408;SDS011;60402;48.082;11.628;2023-04-16T08:40:45;0.63;;;0.40;;
72408;SDS011;60402;48.082;11.628;2023-04-16T08:43:32;0.43;;;0.30;;
72408;SDS011;60402;48.082;11.628;2023-04-16T08:46:21;1.27;;;0.40;;
72408;SDS011;60402;48.082;11.628;2023-04-16T08:49:12;0.20;;;0.20;;
72408;SDS011;60402;48.082;11.628;2023-04-16T08:52:03;0.13;;;0.10;;
72408;SDS011;60402;48.082;11.628;2023-04-16T08:57:59;0.68;;;0.25;;
72408;SDS011;60402;48.082;11.628;2023-04-16T09:00:46;0.75;;;0.40;;
72408;SDS011;60402;48.082;11.628;2023-04-16T09:03:33;0.63;;;0.30;;
72408;SDS011;60402;48.082;11.628;2023-04-16T09:06:19;0.38;;;0.28;;
72408;SDS011;60402;48.082;11.628;2023-04-16T09:09:05;0.50;;;0.20;;
72408;SDS011;60402;48.082;11.628;2023-04-16T09:11:51;0.50;;;0.25;;
72408;SDS011;60402;48.082;11.628;2023-04-16T09:14:38;0.13;;;0.10;;
72408;SDS011;60402;48.082;11.628;2023-04-16T09:17:26;0.30;;;0.20;;
72408;SDS011;60402;48.082;11.628;2023-04-16T09:20:12;0.28;;;0.25;;
72408;SDS011;60402;48.082;11.628;2023-04-16T09:22:59;0.55;;;0.20;;
72408;SDS011;60402;48.082;11.628;2023-04-16T09:25:44;0.50;;;0.20;;
72408;SDS011;60402;48.082;11.628;2023-04-16T09:31:25;0.60;;;0.20;;
72408;SDS011;60402;48.082;11.628;2023-04-16T09:34:11;0.25;;;0.20;;
72408;SDS011;60402;48.082;11.628;2023-04-16T09:37:12;0.20;;;0.20;;
72408;SDS011;60402;48.082;11.628;2023-04-16T09:40:00;0.63;;;0.20;;
72408;SDS011;60402;48.082;11.628;2023-04-16T09:42:46;0.15;;;0.10;;
72408;SDS011;60402;48.082;11.628;2023-04-16T09:45:39;0.57;;;0.20;;
72408;SDS011;60402;48.082;11.628;2023-04-16T09:48:36;0.45;;;0.30;;
72408;SDS011;60402;48.082;11.628;2023-04-16T09:51:21;0.90;;;0.20;;
72408;SDS011;60402;48.082;11.628;2023-04-16T09:54:07;0.95;;;0.40;;
72408;SDS011;60402;48.082;11.628;2023-04-16T09:56:55;0.32;;;0.20;;
72408;SDS011;60402;48.082;11.628;2023-04-16T09:59:41;0.70;;;0.25;;
72408;SDS011;60402;48.082;11.628;2023-04-16T10:02:27;0.32;;;0.10;;
72408;SDS011;60402;48.082;11.628;2023-04-16T10:05:13;0.52;;;0.20;;
72408;SDS011;60402;48.082;11.628;2023-04-16T10:08:09;0.40;;;0.20;;
72408;SDS011;60402;48.082;11.628;2023-04-16T10:10:56;0.35;;;0.20;;
72408;SDS011;60402;48.082;11.628;2023-04-16T10:13:42;0.38;;;0.22;;
72408;SDS011;60402;48.082;11.628;2023-04-16T10:16:28;1.50;;;0.50;;
72408;SDS011;60402;48.082;11.628;2023-04-16T10:19:16;1.65;;;0.70;;
72408;SDS011;60402;48.082;11.628;2023-04-16T10:22:02;1.20;;;0.47;;
72408;SDS011;60402;48.082;11.628;2023-04-16T10:24:48;1.98;;;0.70;;
72408;SDS011;60402;48.082;11.628;2023-04-16T10:27:34;1.67;;;0.70;;
72408;SDS011;60402;48.082;11.628;2023-04-16T10:30:21;2.25;;;0.77;;
72408;SDS011;60402;48.082;11.628;2023-04-16T10:33:07;0.35;;;0.20;;
72408;SDS011;60402;48.082;11.628;2023-04-16T10:36:12;0.30;;;0.15;;
72408;SDS011;60402;48.082;11.628;2023-04-16T10:39:00;5.28;;;1.10;;
72408;SDS011;60402;48.082;11.628;2023-04-16T10:41:45;4.80;;;1.75;;
72408;SDS011;60402;48.082;11.628;2023-04-16T10:44:31;3.90;;;1.45;;
72408;SDS011;60402;48.082;11.628;2023-04-16T10:47:17;1.05;;;0.43;;
72408;SDS011;60402;48.082;11.628;2023-04-16T10:50:14;0.73;;;0.40;;
72408;SDS011;60402;48.082;11.628;2023-04-16T10:53:17;0.35;;;0.35;;
72408;SDS011;60402;48.082;11.628;2023-04-16T10:56:12;1.67;;;0.32;;
72408;SDS011;60402;48.082;11.628;2023-04-16T10:58:58;0.30;;;0.30;;
72408;SDS011;60402;48.082;11.628;2023-04-16T11:01:44;0.65;;;0.30;;
72408;SDS011;60402;48.082;11.628;2023-04-16T11:07:31;1.17;;;0.50;;
72408;SDS011;60402;48.082;11.628;2023-04-16T11:10:18;0.38;;;0.30;;
72408;SDS011;60402;48.082;11.628;2023-04-16T11:13:03;0.55;;;0.20;;
72408;SDS011;60402;48.082;11.628;2023-04-16T11:15:50;0.52;;;0.30;;
72408;SDS011;60402;48.082;11.628;2023-04-16T11:18:37;0.75;;;0.20;;
72408;SDS011;60402;48.082;11.628;2023-04-16T11:21:24;0.95;;;0.30;;
72408;SDS011;60402;48.082;11.628;2023-04-16T11:24:11;1.67;;;0.52;;
72408;SDS011;60402;48.082;11.628;2023-04-16T11:26:56;4.53;;;1.00;;
72408;SDS011;60402;48.082;11.628;2023-04-16T11:29:42;2.55;;;0.70;;
72408;SDS011;60402;48.082;11.628;2023-04-16T11:32:31;0.88;;;0.25;;
72408;SDS011;60402;48.082;11.628;2023-04-16T11:35:19;0.50;;;0.30;;
72408;SDS011;60402;48.082;11.628;2023-04-16T11:38:04;0.63;;;0.20;;
72408;SDS011;60402;48.082;11.628;2023-04-16T11:40:51;0.90;;;0.38;;
72408;SDS011;60402;48.082;11.628;2023-04-16T11:43:38;0.55;;;0.30;;
72408;SDS011;60402;48.082;11.628;2023-04-16T11:46:36;0.35;;;0.20;;
72408;SDS011;60402;48.082;11.628;2023-04-16T11:49:27;0.70;;;0.50;;
72408;SDS011;60402;48.082;11.628;2023-04-16T11:52:14;1.00;;;0.30;;
72408;SDS011;60402;48.082;11.628;2023-04-16T11:55:12;0.50;;;0.30;;
72408;SDS011;60402;48.082;11.628;2023-04-16T11:58:10;0.63;;;0.30;;
72408;SDS011;60402;48.082;11.628;2023-04-16T12:00:57;1.33;;;0.65;;
72408;SDS011;60402;48.082;11.628;2023-04-16T12:03:44;2.10;;;0.60;;
72408;SDS011;60402;48.082;11.628;2023-04-16T12:06:33;1.67;;;0.50;;
72408;SDS011;60402;48.082;11.628;2023-04-16T12:09:23;3.65;;;0.95;;
72408;SDS011;60402;48.082;11.628;2023-04-16T12:12:27;2.75;;;0.80;;
72408;SDS011;60402;48.082;11.628;2023-04-16T12:15:14;0.73;;;0.30;;
72408;SDS011;60402;48.082;11.628;2023-04-16T12:18:06;0.35;;;0.30;;
72408;SDS011;60402;48.082;11.628;2023-04-16T12:20:53;1.58;;;0.65;;
72408;SDS011;60402;48.082;11.628;2023-04-16T12:23:38;1.38;;;0.60;;
72408;SDS011;60402;48.082;11.628;2023-04-16T12:26:24;1.00;;;0.40;;
72408;SDS011;60402;48.082;11.628;2023-04-16T12:29:13;3.05;;;0.77;;
72408;SDS011;60402;48.082;11.628;2023-04-16T12:32:00;1.35;;;0.70;;
72408;SDS011;60402;48.082;11.628;2023-04-16T12:34:50;2.22;;;0.75;;
72408;SDS011;60402;48.082;11.628;2023-04-16T12:37:36;3.88;;;0.90;;
72408;SDS011;60402;48.082;11.628;2023-04-16T12:40:22;3.83;;;1.10;;
72408;SDS011;60402;48.082;11.628;2023-04-16T12:43:08;4.20;;;1.27;;
72408;SDS011;60402;48.082;11.628;2023-04-16T12:45:54;5.72;;;1.75;;
72408;SDS011;60402;48.082;11.628;2023-04-16T12:48:40;4.28;;;1.45;;
72408;SDS011;60402;48.082;11.628;2023-04-16T12:51:26;4.15;;;1.50;;
72408;SDS011;60402;48.082;11.628;2023-04-16T12:54:12;3.60;;;1.20;;
72408;SDS011;60402;48.082;11.628;2023-04-16T12:56:57;1.88;;;0.82;;
72408;SDS011;60402;48.082;11.628;2023-04-16T12:59:43;4.18;;;1.00;;
72408;SDS011;60402;48.082;11.628;2023-04-16T13:02:31;3.53;;;0.80;;
72408;SDS011;60402;48.082;11.628;2023-04-16T13:05:16;1.27;;;0.47;;
72408;SDS011;60402;48.082;11.628;2023-04-16T13:08:03;1.30;;;0.60;;
72408;SDS011;60402;48.082;11.628;2023-04-16T13:10:49;0.60;;;0.43;;
72408;SDS011;60402;48.082;11.628;2023-04-16T13:13:35;1.20;;;0.50;;
72408;SDS011;60402;48.082;11.628;2023-04-16T13:16:21;0.93;;;0.43;;
72408;SDS011;60402;48.082;11.628;2023-04-16T13:19:06;1.33;;;0.52;;
72408;SDS011;60402;48.082;11.628;2023-04-16T13:21:52;1.60;;;0.65;;
72408;SDS011;60402;48.082;11.628;2023-04-16T13:24:38;3.35;;;0.88;;
72408;SDS011;60402;48.082;11.628;2023-04-16T13:27:24;0.95;;;0.50;;
72408;SDS011;60402;48.082;11.628;2023-04-16T13:30:09;3.40;;;0.60;;
72408;SDS011;60402;48.082;11.628;2023-04-16T13:32:56;1.08;;;0.60;;
72408;SDS011;60402;48.082;11.628;2023-04-16T13:35:41;0.93;;;0.40;;
72408;SDS011;60402;48.082;11.628;2023-04-16T13:38:27;0.57;;;0.40;;
72408;SDS011;60402;48.082;11.628;2023-04-16T13:41:13;1.05;;;0.40;;
72408;SDS011;60402;48.082;11.628;2023-04-16T13:43:58;1.08;;;0.30;;
72408;SDS011;60402;48.082;11.628;2023-04-16T13:46:44;0.90;;;0.40;;
72408;SDS011;60402;48.082;11.628;2023-04-16T13:49:32;1.80;;;0.80;;
72408;SDS011;60402;48.082;11.628;2023-04-16T13:52:19;0.88;;;0.50;;
72408;SDS011;60402;48.082;11.628;2023-04-16T13:55:05;0.80;;;0.45;;
72408;SDS011;60402;48.082;11.628;2023-04-16T13:57:51;3.78;;;1.35;;
72408;SDS011;60402;48.082;11.628;2023-04-16T14:00:37;3.80;;;1.08;;
72408;SDS011;60402;48.082;11.628;2023-04-16T14:03:23;1.23;;;0.70;;
72408;SDS011;60402;48.082;11.628;2023-04-16T14:06:11;1.15;;;0.50;;
72408;SDS011;60402;48.082;11.628;2023-04-16T14:08:58;1.00;;;0.70;;
72408;SDS011;60402;48.082;11.628;2023-04-16T14:11:43;1.80;;;0.90;;
72408;SDS011;60402;48.082;11.628;2023-04-16T14:14:29;2.72;;;1.20;;
72408;SDS011;60402;48.082;11.628;2023-04-16T14:17:14;2.05;;;0.70;;
72408;SDS011;60402;48.082;11.628;2023-04-16T14:20:00;2.75;;;0.93;;
72408;SDS011;60402;48.082;11.628;2023-04-16T14:22:46;5.03;;;1.42;;
72408;SDS011;60402;48.082;11.628;2023-04-16T14:25:32;2.97;;;1.30;;
72408;SDS011;60402;48.082;11.628;2023-04-16T14:28:18;3.33;;;1.20;;
72408;SDS011;60402;48.082;11.628;2023-04-16T14:31:04;1.98;;;0.90;;
72408;SDS011;60402;48.082;11.628;2023-04-16T14:33:49;1.17;;;0.50;;
72408;SDS011;60402;48.082;11.628;2023-04-16T14:36:35;1.38;;;0.50;;
72408;SDS011;60402;48.082;11.628;2023-04-16T14:39:21;0.80;;;0.40;;
72408;SDS011;60402;48.082;11.628;2023-04-16T14:42:06;1.27;;;0.90;;
72408;SDS011;60402;48.082;11.628;2023-04-16T14:44:52;1.90;;;0.75;;
72408;SDS011;60402;48.082;11.628;2023-04-16T14:47:38;1.33;;;0.60;;
72408;SDS011;60402;48.082;11.628;2023-04-16T14:50:29;0.68;;;0.50;;
72408;SDS011;60402;48.082;11.628;2023-04-16T14:53:15;1.98;;;0.70;;
72408;SDS011;60402;48.082;11.628;2023-04-16T14:56:01;1.33;;;0.63;;
72408;SDS011;60402;48.082;11.628;2023-04-16T14:58:46;1.00;;;0.55;;
72408;SDS011;60402;48.082;11.628;2023-04-16T15:01:32;1.10;;;0.60;;
72408;SDS011;60402;48.082;11.628;2023-04-16T15:04:18;1.92;;;0.90;;
72408;SDS011;60402;48.082;11.628;2023-04-16T15:07:04;2.67;;;1.10;;
72408;SDS011;60402;48.082;11.628;2023-04-16T15:09:50;1.85;;;0.70;;
72408;SDS011;60402;48.082;11.628;2023-04-16T15:12:36;2.03;;;0.90;;
72408;SDS011;60402;48.082;11.628;2023-04-16T15:15:22;2.17;;;1.02;;
72408;SDS011;60402;48.082;11.628;2023-04-16T15:18:08;3.63;;;1.23;;
72408;SDS011;60402;48.082;11.628;2023-04-16T15:20:54;3.25;;;1.20;;
72408;SDS011;60402;48.082;11.628;2023-04-16T15:23:39;2.35;;;1.30;;
72408;SDS011;60402;48.082;11.628;2023-04-16T15:26:25;4.60;;;1.73;;
72408;SDS011;60402;48.082;11.628;2023-04-16T15:29:11;6.80;;;2.38;;
72408;SDS011;60402;48.082;11.628;2023-04-16T15:31:57;5.45;;;1.70;;
72408;SDS011;60402;48.082;11.628;2023-04-16T15:34:43;2.42;;;0.90;;
72408;SDS011;60402;48.082;11.628;2023-04-16T15:37:28;4.22;;;1.30;;
72408;SDS011;60402;48.082;11.628;2023-04-16T15:40:15;1.85;;;0.80;;
72408;SDS011;60402;48.082;11.628;2023-04-16T15:43:03;2.03;;;0.98;;
72408;SDS011;60402;48.082;11.628;2023-04-16T15:45:50;2.97;;;0.98;;
72408;SDS011;60402;48.082;11.628;2023-04-16T15:48:36;3.28;;;1.52;;
72408;SDS011;60402;48.082;11.628;2023-04-16T15:51:21;3.08;;;1.10;;
72408;SDS011;60402;48.082;11.628;2023-04-16T15:54:07;5.85;;;1.23;;
72408;SDS011;60402;48.082;11.628;2023-04-16T15:56:53;3.08;;;0.90;;
72408;SDS011;60402;48.082;11.628;2023-04-16T15:59:38;1.95;;;0.70;;
72408;SDS011;60402;48.082;11.628;2023-04-16T16:02:24;2.05;;;1.00;;
72408;SDS011;60402;48.082;11.628;2023-04-16T16:05:11;3.08;;;1.17;;
72408;SDS011;60402;48.082;11.628;2023-04-16T16:07:58;1.75;;;0.60;;
72408;SDS011;60402;48.082;11.628;2023-04-16T16:10:45;2.20;;;0.47;;
72408;SDS011;60402;48.082;11.628;2023-04-16T16:13:31;0.85;;;0.43;;
72408;SDS011;60402;48.082;11.628;2023-04-16T16:16:17;2.33;;;0.70;;
72408;SDS011;60402;48.082;11.628;2023-04-16T16:19:03;1.02;;;0.40;;
72408;SDS011;60402;48.082;11.628;2023-04-16T16:21:57;1.25;;;0.60;;
72408;SDS011;60402;48.082;11.628;2023-04-16T16:24:42;2.17;;;0.82;;
72408;SDS011;60402;48.082;11.628;2023-04-16T16:27:28;1.27;;;0.60;;
72408;SDS011;60402;48.082;11.628;2023-04-16T16:30:14;1.17;;;0.80;;
72408;SDS011;60402;48.082;11.628;2023-04-16T16:32:59;2.05;;;1.00;;
72408;SDS011;60402;48.082;11.628;2023-04-16T16:35:45;1.05;;;0.60;;
72408;SDS011;60402;48.082;11.628;2023-04-16T16:38:31;1.27;;;0.50;;